Time;durP1;ratioP1;P1;durP2;ratioP2;P2;SDS_P1;SDS_P2;PMS_P1;PMS_P2;Temp;Humidity;BMP_temperature;BMP_pressure;BME280_temperature;BME280_humidity;BME280_pressure;Samples;Min_cycle;Max_cycle;Signal;HPM_P1;HPM_P2
2023/04/17 00:01:06;;;;;;;1.70;1.60;;;;;;;;;;5020858;28;58423;-62
2023/04/17 00:03:31;;;;;;;2.37;2.17;;;;;;;;;;5022402;28;58588;-62
2023/04/17 00:05:57;;;;;;;2.60;1.88;;;;;;;;;;5021270;28;58194;-62
2023/04/17 00:08:22;;;;;;;2.25;2.05;;;;;;;;;;5022339;28;59159;-60
2023/04/17 00:10:47;;;;;;;2.00;1.90;;;;;;;;;;5023682;28;58871;-61
2023/04/17 00:13:12;;;;;;;2.40;2.15;;;;;;;;;;5022301;28;58661;-62
2023/04/17 00:15:39;;;;;;;2.08;1.88;;;;;;;;;;5021125;28;58689;-62
2023/04/17 00:18:04;;;;;;;3.25;2.35;;;;;;;;;;5023608;28;58685;-62
2023/04/17 00:20:29;;;;;;;2.03;1.93;;;;;;;;;;5022274;28;58411;-61
2023/04/17 00:22:54;;;;;;;2.30;2.17;;;;;;;;;;5022820;28;58224;-62
2023/04/17 00:25:19;;;;;;;2.00;1.90;;;;;;;;;;5022371;28;58404;-61
2023/04/17 00:27:45;;;;;;;2.70;2.50;;;;;;;;;;5022368;28;59396;-62
2023/04/17 00:30:10;;;;;;;2.30;2.10;;;;;;;;;;5021067;28;58584;-62
2023/04/17 00:32:35;;;;;;;2.47;2.33;;;;;;;;;;5020943;28;58452;-62
2023/04/17 00:35:00;;;;;;;2.65;2.00;;;;;;;;;;5024267;28;58823;-62
2023/04/17 00:37:25;;;;;;;2.60;2.25;;;;;;;;;;5021151;28;58745;-62
2023/04/17 00:39:50;;;;;;;2.53;2.33;;;;;;;;;;5023699;28;58996;-59
2023/04/17 00:42:15;;;;;;;2.58;2.40;;;;;;;;;;5023455;28;58470;-61
2023/04/17 00:44:41;;;;;;;2.20;1.97;;;;;;;;;;5021517;28;58367;-60
2023/04/17 00:47:06;;;;;;;3.00;2.07;;;;;;;;;;5022606;28;58670;-62
2023/04/17 00:49:31;;;;;;;2.00;1.90;;;;;;;;;;5021621;28;59273;-62
2023/04/17 00:51:57;;;;;;;1.90;1.80;;;;;;;;;;5035894;28;59109;-62
2023/04/17 00:54:23;;;;;;;2.00;1.90;;;;;;;;;;5019587;28;59063;-62
2023/04/17 00:56:49;;;;;;;2.08;1.98;;;;;;;;;;5019752;28;59004;-62
2023/04/17 00:59:15;;;;;;;2.28;2.13;;;;;;;;;;5023878;28;58380;-62
2023/04/17 01:01:40;;;;;;;2.30;2.05;;;;;;;;;;5023673;28;58932;-61
2023/04/17 01:04:06;;;;;;;2.45;2.25;;;;;;;;;;5023117;28;58426;-60
2023/04/17 01:06:32;;;;;;;2.35;2.17;;;;;;;;;;5025643;28;58192;-62
2023/04/17 01:08:57;;;;;;;2.07;1.87;;;;;;;;;;5023467;28;58488;-62
2023/04/17 01:11:22;;;;;;;2.03;1.90;;;;;;;;;;5026740;28;58803;-62
2023/04/17 01:13:48;;;;;;;2.15;2.05;;;;;;;;;;5027385;28;58677;-62
2023/04/17 01:16:13;;;;;;;1.98;1.88;;;;;;;;;;5023439;28;57920;-62
2023/04/17 01:18:39;;;;;;;2.47;2.27;;;;;;;;;;5024006;28;58532;-62
2023/04/17 01:21:04;;;;;;;2.30;1.90;;;;;;;;;;5024336;28;59035;-61
2023/04/17 01:23:41;;;;;;;3.08;2.35;;;;;;;;;;5025975;28;58455;-62
2023/04/17 01:26:06;;;;;;;2.45;2.25;;;;;;;;;;5023810;28;62318;-62
2023/04/17 01:28:31;;;;;;;2.65;2.05;;;;;;;;;;5025559;28;58045;-62
2023/04/17 01:30:56;;;;;;;3.38;2.25;;;;;;;;;;5025275;28;58162;-62
2023/04/17 01:33:21;;;;;;;2.60;2.40;;;;;;;;;;5023427;28;58594;-62
2023/04/17 01:35:47;;;;;;;2.43;2.00;;;;;;;;;;5022694;28;58782;-61
2023/04/17 01:38:13;;;;;;;2.22;2.03;;;;;;;;;;5027836;28;58391;-60
2023/04/17 01:40:38;;;;;;;2.60;2.40;;;;;;;;;;5024146;28;58337;-62
2023/04/17 01:43:03;;;;;;;2.03;1.90;;;;;;;;;;5023340;28;58383;-62
2023/04/17 01:45:28;;;;;;;2.08;1.98;;;;;;;;;;5025383;28;58628;-62
2023/04/17 01:47:53;;;;;;;2.25;2.05;;;;;;;;;;5024276;28;58550;-61
2023/04/17 01:50:18;;;;;;;2.50;2.30;;;;;;;;;;5026210;28;58188;-62
2023/04/17 01:52:44;;;;;;;2.57;2.37;;;;;;;;;;5024231;28;58635;-60
2023/04/17 01:55:09;;;;;;;2.22;2.08;;;;;;;;;;5027796;28;58660;-61
2023/04/17 01:57:34;;;;;;;2.20;2.10;;;;;;;;;;5027228;28;58368;-61
2023/04/17 02:00:00;;;;;;;2.23;1.90;;;;;;;;;;5026073;28;58431;-62
2023/04/17 02:02:25;;;;;;;2.07;1.97;;;;;;;;;;5025228;28;58520;-62
2023/04/17 02:04:50;;;;;;;2.23;2.03;;;;;;;;;;5026775;28;58348;-62
2023/04/17 02:07:15;;;;;;;2.50;2.30;;;;;;;;;;5027439;28;58819;-62
2023/04/17 02:09:40;;;;;;;2.60;2.40;;;;;;;;;;5026635;28;58413;-61
2023/04/17 02:12:05;;;;;;;1.88;1.73;;;;;;;;;;5027317;28;58158;-62
2023/04/17 02:14:31;;;;;;;2.43;2.23;;;;;;;;;;5028875;28;58574;-61
2023/04/17 02:16:56;;;;;;;3.10;2.00;;;;;;;;;;5027555;28;58099;-62
2023/04/17 02:19:21;;;;;;;2.57;2.37;;;;;;;;;;5025238;28;58725;-60
2023/04/17 02:21:46;;;;;;;2.78;2.58;;;;;;;;;;5026117;28;58555;-62
2023/04/17 02:24:12;;;;;;;2.57;2.37;;;;;;;;;;5028910;28;58369;-60
2023/04/17 02:26:37;;;;;;;2.27;2.07;;;;;;;;;;5027313;28;58730;-62
2023/04/17 02:29:02;;;;;;;2.50;2.30;;;;;;;;;;5026626;28;58507;-63
2023/04/17 02:31:27;;;;;;;2.63;2.43;;;;;;;;;;5026378;28;58369;-62
2023/04/17 02:33:53;;;;;;;2.23;2.10;;;;;;;;;;5025855;28;58919;-62
2023/04/17 02:36:18;;;;;;;2.03;1.87;;;;;;;;;;5025768;28;58395;-62
2023/04/17 02:38:43;;;;;;;2.00;1.90;;;;;;;;;;5025368;28;59990;-62
2023/04/17 02:41:09;;;;;;;2.13;2.03;;;;;;;;;;5025121;28;58733;-59
2023/04/17 02:43:34;;;;;;;1.92;1.83;;;;;;;;;;5026856;28;58652;-62
2023/04/17 02:46:00;;;;;;;2.43;2.23;;;;;;;;;;5024340;28;58388;-61
2023/04/17 02:48:25;;;;;;;2.25;2.05;;;;;;;;;;5025901;28;58488;-60
2023/04/17 02:50:50;;;;;;;2.40;2.20;;;;;;;;;;5024837;28;58122;-62
2023/04/17 02:53:15;;;;;;;2.15;1.95;;;;;;;;;;5025477;28;58507;-59
2023/04/17 02:55:40;;;;;;;2.10;1.90;;;;;;;;;;5026646;28;58944;-62
2023/04/17 02:58:05;;;;;;;2.17;1.93;;;;;;;;;;5024909;28;59038;-61
2023/04/17 03:00:31;;;;;;;2.65;2.45;;;;;;;;;;5027393;28;58469;-62
2023/04/17 03:02:56;;;;;;;2.08;1.67;;;;;;;;;;5024054;28;58558;-61
2023/04/17 03:05:22;;;;;;;2.38;2.17;;;;;;;;;;5026491;28;59015;-62
2023/04/17 03:07:48;;;;;;;2.85;2.65;;;;;;;;;;5024367;28;59490;-60
2023/04/17 03:10:13;;;;;;;1.85;1.75;;;;;;;;;;5027046;28;58283;-62
2023/04/17 03:12:39;;;;;;;1.75;1.50;;;;;;;;;;5026010;28;59318;-62
2023/04/17 03:15:05;;;;;;;2.67;1.70;;;;;;;;;;5027054;28;58713;-62
2023/04/17 03:17:30;;;;;;;2.10;2.00;;;;;;;;;;5026036;28;59022;-62
2023/04/17 03:19:55;;;;;;;2.83;2.63;;;;;;;;;;5026313;28;58348;-60
2023/04/17 03:22:21;;;;;;;2.20;2.10;;;;;;;;;;5022971;28;58313;-59
2023/04/17 03:24:46;;;;;;;1.98;1.80;;;;;;;;;;5026669;28;58155;-62
2023/04/17 03:27:11;;;;;;;1.90;1.80;;;;;;;;;;5026615;28;58368;-62
2023/04/17 03:29:36;;;;;;;1.90;1.80;;;;;;;;;;5026676;28;59151;-62
2023/04/17 03:32:01;;;;;;;2.07;1.87;;;;;;;;;;5026650;28;58261;-62
2023/04/17 03:34:27;;;;;;;2.88;2.60;;;;;;;;;;5026878;28;58677;-61
2023/04/17 03:36:53;;;;;;;3.63;2.45;;;;;;;;;;5025138;28;58711;-61
2023/04/17 03:39:18;;;;;;;2.35;2.15;;;;;;;;;;5022237;28;59298;-62
2023/04/17 03:41:43;;;;;;;2.20;2.10;;;;;;;;;;5023856;28;58439;-62
2023/04/17 03:44:08;;;;;;;2.30;2.20;;;;;;;;;;5025779;28;58012;-63
2023/04/17 03:46:34;;;;;;;2.50;2.30;;;;;;;;;;5025872;28;58550;-63
2023/04/17 03:48:59;;;;;;;2.43;2.23;;;;;;;;;;5023692;28;58475;-61
2023/04/17 03:51:26;;;;;;;2.17;2.00;;;;;;;;;;5024525;28;58939;-64
2023/04/17 03:53:51;;;;;;;3.03;2.70;;;;;;;;;;5025180;28;59452;-63
2023/04/17 03:56:16;;;;;;;2.55;2.38;;;;;;;;;;5026236;28;58637;-63
2023/04/17 03:58:41;;;;;;;2.58;2.38;;;;;;;;;;5024866;28;58772;-64
2023/04/17 04:01:09;;;;;;;2.23;2.00;;;;;;;;;;5025650;28;58098;-63
2023/04/17 04:03:34;;;;;;;;;;;;;;;;;;5039677;28;58154;-62
2023/04/17 04:05:59;;;;;;;2.85;2.65;;;;;;;;;;5024049;28;58691;-64
2023/04/17 04:08:25;;;;;;;2.65;2.45;;;;;;;;;;5024710;28;58689;-63
2023/04/17 04:10:50;;;;;;;2.60;2.40;;;;;;;;;;5025287;28;58750;-63
2023/04/17 04:13:15;;;;;;;1.88;1.77;;;;;;;;;;5024704;28;58529;-63
2023/04/17 04:15:40;;;;;;;3.17;2.90;;;;;;;;;;5025438;28;58705;-63
2023/04/17 04:18:05;;;;;;;2.20;2.00;;;;;;;;;;5025411;28;58926;-63
2023/04/17 04:20:31;;;;;;;2.22;2.03;;;;;;;;;;5025668;28;58646;-63
2023/04/17 04:22:58;;;;;;;3.50;2.27;;;;;;;;;;5023641;28;58461;-63
2023/04/17 04:25:23;;;;;;;2.60;2.40;;;;;;;;;;5023986;28;58414;-63
2023/04/17 04:27:48;;;;;;;2.40;2.20;;;;;;;;;;5024647;28;58172;-63
2023/04/17 04:30:14;;;;;;;2.07;1.97;;;;;;;;;;5025489;28;58992;-64
2023/04/17 04:32:39;;;;;;;1.98;1.73;;;;;;;;;;5022658;28;58577;-63
2023/04/17 04:35:05;;;;;;;2.45;2.25;;;;;;;;;;5027343;28;58715;-64
2023/04/17 04:37:31;;;;;;;2.83;2.63;;;;;;;;;;5026651;28;58211;-64
2023/04/17 04:40:01;;;;;;;2.55;1.95;;;;;;;;;;5028750;28;58351;-64
2023/04/17 04:42:29;;;;;;;3.95;2.67;;;;;;;;;;5025464;28;59123;-63
2023/04/17 04:44:54;;;;;;;3.00;2.75;;;;;;;;;;5027112;28;58315;-63
2023/04/17 04:47:19;;;;;;;3.95;2.40;;;;;;;;;;5029176;28;58667;-63
2023/04/17 04:49:44;;;;;;;3.33;3.10;;;;;;;;;;5023829;28;58768;-64
2023/04/17 04:52:10;;;;;;;4.83;3.57;;;;;;;;;;5025553;28;58498;-61
2023/04/17 04:54:35;;;;;;;4.80;4.20;;;;;;;;;;5028442;28;58733;-63
2023/04/17 04:57:01;;;;;;;5.83;4.17;;;;;;;;;;5025709;28;58259;-63
2023/04/17 04:59:26;;;;;;;3.90;3.60;;;;;;;;;;5024513;28;58407;-64
2023/04/17 05:01:51;;;;;;;6.18;4.28;;;;;;;;;;5025950;28;59113;-64
2023/04/17 05:04:17;;;;;;;8.00;6.40;;;;;;;;;;5022291;28;59254;-63
2023/04/17 05:06:42;;;;;;;9.23;8.25;;;;;;;;;;5026757;28;58656;-64
2023/04/17 05:09:07;;;;;;;9.63;8.23;;;;;;;;;;5023415;28;58483;-64
2023/04/17 05:11:32;;;;;;;13.33;7.27;;;;;;;;;;5027368;28;58712;-64
2023/04/17 05:13:58;;;;;;;14.25;7.18;;;;;;;;;;5028944;28;58628;-64
2023/04/17 05:16:23;;;;;;;7.43;6.73;;;;;;;;;;5026899;28;58443;-62
2023/04/17 05:18:48;;;;;;;9.47;6.77;;;;;;;;;;5025818;28;58728;-64
2023/04/17 05:21:13;;;;;;;7.63;6.82;;;;;;;;;;5026188;28;58873;-64
2023/04/17 05:23:38;;;;;;;7.47;6.63;;;;;;;;;;5028223;28;58539;-64
2023/04/17 05:26:04;;;;;;;7.10;6.00;;;;;;;;;;5027372;28;58360;-64
2023/04/17 05:28:29;;;;;;;8.30;5.30;;;;;;;;;;5027068;28;59863;-63
2023/04/17 05:30:55;;;;;;;6.40;5.70;;;;;;;;;;5023853;28;58878;-62
2023/04/17 05:33:20;;;;;;;6.25;5.65;;;;;;;;;;5025842;28;58965;-64
2023/04/17 05:35:45;;;;;;;6.07;5.45;;;;;;;;;;5027637;28;58791;-62
2023/04/17 05:38:10;;;;;;;8.65;5.43;;;;;;;;;;5027491;28;58211;-62
2023/04/17 05:40:36;;;;;;;6.57;5.97;;;;;;;;;;5028107;28;58730;-62
2023/04/17 05:43:10;;;;;;;6.47;5.60;;;;;;;;;;5026843;28;58474;-62
2023/04/17 05:45:36;;;;;;;9.02;6.05;;;;;;;;;;5026535;28;58328;-63
2023/04/17 05:48:01;;;;;;;8.90;5.10;;;;;;;;;;5023740;28;60038;-63
2023/04/17 05:50:26;;;;;;;5.63;5.10;;;;;;;;;;5025447;28;60610;-63
2023/04/17 05:52:51;;;;;;;6.47;4.70;;;;;;;;;;5028081;28;58573;-63
2023/04/17 05:55:18;;;;;;;5.10;4.70;;;;;;;;;;5027789;28;58371;-61
2023/04/17 05:57:44;;;;;;;4.70;4.20;;;;;;;;;;5025593;28;58673;-63
2023/04/17 06:00:11;;;;;;;9.17;5.20;;;;;;;;;;5026887;28;58712;-61
2023/04/17 06:02:36;;;;;;;5.85;5.15;;;;;;;;;;5026685;28;59258;-61
2023/04/17 06:05:03;;;;;;;4.80;4.22;;;;;;;;;;5026752;28;58775;-61
2023/04/17 06:07:28;;;;;;;4.75;4.35;;;;;;;;;;5025926;28;59120;-61
2023/04/17 06:09:53;;;;;;;4.50;3.88;;;;;;;;;;5024107;28;58690;-61
2023/04/17 06:12:19;;;;;;;4.80;4.32;;;;;;;;;;5025384;28;58476;-61
2023/04/17 06:14:44;;;;;;;5.97;4.45;;;;;;;;;;5024511;28;58700;-61
2023/04/17 06:17:09;;;;;;;4.32;3.97;;;;;;;;;;5026625;28;58672;-61
2023/04/17 06:19:34;;;;;;;5.10;4.37;;;;;;;;;;5025695;28;58558;-64
2023/04/17 06:21:59;;;;;;;4.55;4.13;;;;;;;;;;5026121;28;58447;-61
2023/04/17 06:24:25;;;;;;;4.67;3.87;;;;;;;;;;5024955;28;58483;-62
2023/04/17 06:26:50;;;;;;;6.15;4.32;;;;;;;;;;5025143;28;58917;-64
2023/04/17 06:29:15;;;;;;;3.67;3.38;;;;;;;;;;5026514;28;59356;-62
2023/04/17 06:31:40;;;;;;;5.37;3.47;;;;;;;;;;5026907;28;58334;-61
2023/04/17 06:34:05;;;;;;;5.45;3.78;;;;;;;;;;5026725;28;58748;-63
2023/04/17 06:36:32;;;;;;;5.07;4.57;;;;;;;;;;5025062;28;58963;-61
2023/04/17 06:38:57;;;;;;;3.80;3.40;;;;;;;;;;5025760;28;59430;-63
2023/04/17 06:41:22;;;;;;;4.47;4.07;;;;;;;;;;5025472;28;58425;-64
2023/04/17 06:43:47;;;;;;;6.38;3.88;;;;;;;;;;5026432;28;58495;-63
2023/04/17 06:46:12;;;;;;;4.97;3.25;;;;;;;;;;5028000;28;58321;-63
2023/04/17 06:48:37;;;;;;;3.60;3.27;;;;;;;;;;5024483;28;58345;-60
2023/04/17 06:51:03;;;;;;;4.18;3.85;;;;;;;;;;5027308;28;58662;-61
2023/04/17 06:53:28;;;;;;;4.13;3.73;;;;;;;;;;5027418;28;58795;-61
2023/04/17 06:55:53;;;;;;;4.50;3.05;;;;;;;;;;5026113;28;58482;-61
2023/04/17 06:58:18;;;;;;;3.47;3.13;;;;;;;;;;5026143;28;58328;-63
2023/04/17 07:00:43;;;;;;;3.73;2.97;;;;;;;;;;5026537;28;58867;-63
2023/04/17 07:03:08;;;;;;;4.95;3.22;;;;;;;;;;5024554;28;58932;-63
2023/04/17 07:05:34;;;;;;;4.37;3.87;;;;;;;;;;5026304;28;58694;-63
2023/04/17 07:07:59;;;;;;;5.07;3.30;;;;;;;;;;5021174;28;58861;-62
2023/04/17 07:10:24;;;;;;;3.50;2.97;;;;;;;;;;5026081;28;58670;-63
2023/04/17 07:12:49;;;;;;;4.13;3.55;;;;;;;;;;5027409;28;58403;-62
2023/04/17 07:15:15;;;;;;;3.75;3.33;;;;;;;;;;5025882;28;58354;-62
2023/04/17 07:17:40;;;;;;;3.33;2.90;;;;;;;;;;5026270;28;58369;-63
2023/04/17 07:20:06;;;;;;;3.83;3.53;;;;;;;;;;5027709;28;63525;-63
2023/04/17 07:22:31;;;;;;;3.53;3.22;;;;;;;;;;5026295;28;58398;-63
2023/04/17 07:24:56;;;;;;;9.43;4.18;;;;;;;;;;5025266;28;58431;-63
2023/04/17 07:27:21;;;;;;;3.55;2.80;;;;;;;;;;5025394;28;58486;-63
2023/04/17 07:29:53;;;;;;;4.47;3.50;;;;;;;;;;5026009;28;58480;-62
2023/04/17 07:32:18;;;;;;;4.18;2.85;;;;;;;;;;5026869;28;59283;-61
2023/04/17 07:34:43;;;;;;;3.97;3.67;;;;;;;;;;5024385;28;58389;-61
2023/04/17 07:37:08;;;;;;;3.50;2.93;;;;;;;;;;5026364;28;58327;-63
2023/04/17 07:39:33;;;;;;;4.43;3.05;;;;;;;;;;5024665;28;58007;-63
2023/04/17 07:41:59;;;;;;;2.90;2.70;;;;;;;;;;5024980;28;58548;-63
2023/04/17 07:44:24;;;;;;;2.80;2.47;;;;;;;;;;5026965;28;58310;-62
2023/04/17 07:46:49;;;;;;;3.38;3.05;;;;;;;;;;5024328;28;58474;-61
2023/04/17 07:49:14;;;;;;;4.27;3.67;;;;;;;;;;5026056;28;58533;-62
2023/04/17 07:51:40;;;;;;;2.87;2.67;;;;;;;;;;5023726;28;59833;-61
2023/04/17 07:54:05;;;;;;;2.92;2.72;;;;;;;;;;5025510;28;58080;-61
2023/04/17 07:56:33;;;;;;;2.95;2.72;;;;;;;;;;5025563;28;58493;-60
2023/04/17 07:58:58;;;;;;;4.65;3.15;;;;;;;;;;5024887;28;58347;-61
2023/04/17 08:01:23;;;;;;;3.35;3.05;;;;;;;;;;5025540;28;58577;-61
2023/04/17 08:03:50;;;;;;;4.00;2.53;;;;;;;;;;5025959;28;58444;-60
2023/04/17 08:06:15;;;;;;;4.68;3.13;;;;;;;;;;5024374;28;58838;-61
2023/04/17 08:08:40;;;;;;;2.87;2.57;;;;;;;;;;5025078;28;58441;-59
2023/04/17 08:11:05;;;;;;;3.35;2.67;;;;;;;;;;5026799;28;58707;-60
2023/04/17 08:13:31;;;;;;;3.67;3.37;;;;;;;;;;5024774;28;59816;-61
2023/04/17 08:15:56;;;;;;;3.37;3.10;;;;;;;;;;5025726;28;58443;-61
2023/04/17 08:18:21;;;;;;;3.10;2.80;;;;;;;;;;5022940;28;58521;-61
2023/04/17 08:20:46;;;;;;;4.82;3.45;;;;;;;;;;5025485;28;58845;-59
2023/04/17 08:23:11;;;;;;;3.05;2.63;;;;;;;;;;5027529;28;58700;-60
2023/04/17 08:25:36;;;;;;;3.35;3.05;;;;;;;;;;5026161;28;58437;-61
2023/04/17 08:28:02;;;;;;;3.37;2.67;;;;;;;;;;5024005;28;58430;-61
2023/04/17 08:30:27;;;;;;;2.50;2.30;;;;;;;;;;5025341;28;58096;-61
2023/04/17 08:32:54;;;;;;;3.00;2.80;;;;;;;;;;5024889;28;58466;-64
2023/04/17 08:35:19;;;;;;;2.97;2.47;;;;;;;;;;5024535;28;58730;-61
2023/04/17 08:37:45;;;;;;;3.58;2.97;;;;;;;;;;5026240;28;58779;-61
2023/04/17 08:40:12;;;;;;;3.33;3.03;;;;;;;;;;5026201;28;58494;-61
2023/04/17 08:42:38;;;;;;;2.22;2.03;;;;;;;;;;5024126;28;58046;-60
2023/04/17 08:45:04;;;;;;;2.67;2.42;;;;;;;;;;5024637;28;59555;-60
2023/04/17 08:47:29;;;;;;;3.10;2.72;;;;;;;;;;5025273;28;58609;-62
2023/04/17 08:49:55;;;;;;;2.85;2.65;;;;;;;;;;5025357;28;58057;-61
2023/04/17 08:52:20;;;;;;;2.90;2.70;;;;;;;;;;5024456;28;59244;-62
2023/04/17 08:54:46;;;;;;;2.42;2.22;;;;;;;;;;5026354;28;58395;-61
2023/04/17 08:57:11;;;;;;;3.22;2.92;;;;;;;;;;5025200;28;58664;-59
2023/04/17 08:59:36;;;;;;;3.63;3.33;;;;;;;;;;5024397;28;58933;-61
2023/04/17 09:02:02;;;;;;;3.07;2.87;;;;;;;;;;5025063;28;58255;-61
2023/04/17 09:04:38;;;;;;;2.80;2.38;;;;;;;;;;5025616;28;58528;-61
2023/04/17 09:07:04;;;;;;;2.90;2.70;;;;;;;;;;5025149;28;58615;-61
2023/04/17 09:09:48;;;;;;;2.40;2.20;;;;;;;;;;5025181;28;58542;-61
2023/04/17 09:12:13;;;;;;;2.95;2.72;;;;;;;;;;5025367;28;58742;-61
2023/04/17 09:14:38;;;;;;;2.77;2.57;;;;;;;;;;5025893;28;58351;-61
2023/04/17 09:17:03;;;;;;;2.63;2.37;;;;;;;;;;5024746;28;59034;-61
2023/04/17 09:19:28;;;;;;;2.90;2.43;;;;;;;;;;5025050;28;58605;-61
2023/04/17 09:21:54;;;;;;;3.07;2.77;;;;;;;;;;5028870;28;58284;-61
2023/04/17 09:24:36;;;;;;;2.57;2.37;;;;;;;;;;5028137;27;59731;-59
2023/04/17 09:27:21;;;;;;;2.67;2.47;;;;;;;;;;5027094;28;58455;-62
2023/04/17 09:29:56;;;;;;;2.88;2.17;;;;;;;;;;5029180;28;58383;-60
2023/04/17 09:32:21;;;;;;;2.17;2.00;;;;;;;;;;5030021;28;58894;-61
2023/04/17 09:34:46;;;;;;;2.63;2.40;;;;;;;;;;5024306;28;58522;-61
2023/04/17 09:37:12;;;;;;;2.40;2.20;;;;;;;;;;5029601;28;58291;-59
2023/04/17 09:39:39;;;;;;;2.10;1.90;;;;;;;;;;5027915;28;58901;-61
2023/04/17 09:42:05;;;;;;;2.43;1.93;;;;;;;;;;5025626;28;58534;-61
2023/04/17 09:44:30;;;;;;;3.25;2.38;;;;;;;;;;5029351;28;58583;-62
2023/04/17 09:46:55;;;;;;;2.93;2.33;;;;;;;;;;5027915;28;58856;-61
2023/04/17 09:49:41;;;;;;;2.25;2.03;;;;;;;;;;5027869;28;58252;-61
2023/04/17 09:52:06;;;;;;;2.40;2.20;;;;;;;;;;5026750;27;58944;-61
2023/04/17 09:54:31;;;;;;;2.50;2.30;;;;;;;;;;5028351;28;58788;-61
2023/04/17 09:56:57;;;;;;;2.55;2.35;;;;;;;;;;5027724;28;58121;-61
2023/04/17 09:59:23;;;;;;;2.00;1.90;;;;;;;;;;5029312;28;58109;-61
2023/04/17 10:01:49;;;;;;;2.90;2.60;;;;;;;;;;5026590;28;59210;-60
2023/04/17 10:04:14;;;;;;;1.98;1.88;;;;;;;;;;5027593;28;59182;-61
2023/04/17 10:06:40;;;;;;;2.13;2.03;;;;;;;;;;5026825;28;58510;-61
2023/04/17 10:09:06;;;;;;;1.70;1.60;;;;;;;;;;5027051;28;58962;-61
2023/04/17 10:11:39;;;;;;;2.00;1.90;;;;;;;;;;5027615;28;59237;-61
2023/04/17 10:14:14;;;;;;;2.58;2.38;;;;;;;;;;5026060;28;58473;-62
2023/04/17 10:16:41;;;;;;;1.83;1.73;;;;;;;;;;5027195;28;57981;-61
2023/04/17 10:19:22;;;;;;;2.25;1.73;;;;;;;;;;5028253;28;58949;-62
2023/04/17 10:22:08;;;;;;;2.13;2.03;;;;;;;;;;5028109;28;58689;-61
2023/04/17 10:24:34;;;;;;;3.40;2.03;;;;;;;;;;5025650;27;59227;-60
2023/04/17 10:27:00;;;;;;;1.70;1.60;;;;;;;;;;5025489;28;58630;-61
2023/04/17 10:29:44;;;;;;;2.00;1.90;;;;;;;;;;5028382;28;58792;-61
2023/04/17 10:32:09;;;;;;;2.90;2.25;;;;;;;;;;5028130;28;63103;-61
2023/04/17 10:34:35;;;;;;;2.03;1.90;;;;;;;;;;5026811;28;58815;-61
2023/04/17 10:37:01;;;;;;;2.33;2.10;;;;;;;;;;5025780;28;58463;-61
2023/04/17 10:39:26;;;;;;;2.00;1.90;;;;;;;;;;5026992;28;59048;-62
2023/04/17 10:42:02;;;;;;;2.03;1.93;;;;;;;;;;5027121;28;58572;-61
2023/04/17 10:44:31;;;;;;;1.98;1.75;;;;;;;;;;5028802;28;58937;-61
2023/04/17 10:46:57;;;;;;;1.75;1.65;;;;;;;;;;5027106;28;58625;-62
2023/04/17 10:49:22;;;;;;;1.77;1.67;;;;;;;;;;5027677;28;58776;-62
2023/04/17 10:51:47;;;;;;;2.17;2.03;;;;;;;;;;5026212;28;58430;-61
2023/04/17 10:54:14;;;;;;;4.40;3.55;;;;;;;;;;5025052;28;58842;-61
2023/04/17 10:56:39;;;;;;;2.85;2.65;;;;;;;;;;5024219;28;58323;-62
2023/04/17 10:59:06;;;;;;;2.53;2.33;;;;;;;;;;5027074;28;58717;-61
2023/04/17 11:01:46;;;;;;;2.75;2.55;;;;;;;;;;5023676;28;58487;-60
2023/04/17 11:04:17;;;;;;;4.30;2.83;;;;;;;;;;5026313;27;58685;-61
2023/04/17 11:06:43;;;;;;;4.50;4.13;;;;;;;;;;5025380;28;58664;-62
2023/04/17 11:09:09;;;;;;;3.47;2.77;;;;;;;;;;5026650;28;58660;-62
2023/04/17 11:11:38;;;;;;;3.03;2.83;;;;;;;;;;5026232;28;58736;-61
2023/04/17 11:14:09;;;;;;;3.22;2.92;;;;;;;;;;5026203;28;58691;-60
2023/04/17 11:16:35;;;;;;;2.78;2.40;;;;;;;;;;5027255;28;58466;-61
2023/04/17 11:19:01;;;;;;;2.65;2.45;;;;;;;;;;5025813;28;58944;-61
2023/04/17 11:21:26;;;;;;;2.42;2.22;;;;;;;;;;5025086;28;58348;-62
2023/04/17 11:23:51;;;;;;;4.07;3.00;;;;;;;;;;5026289;28;58652;-61
2023/04/17 11:26:17;;;;;;;3.43;2.83;;;;;;;;;;5022167;28;58718;-62
2023/04/17 11:28:42;;;;;;;2.75;2.55;;;;;;;;;;5025956;28;58810;-61
2023/04/17 11:31:07;;;;;;;2.63;2.43;;;;;;;;;;5026492;28;58390;-61
2023/04/17 11:33:35;;;;;;;2.50;2.13;;;;;;;;;;5025739;28;58752;-60
2023/04/17 11:36:00;;;;;;;;;;;;;;;;;;5027315;28;58338;-60
2023/04/17 11:38:26;;;;;;;3.70;2.58;;;;;;;;;;5024797;28;58430;-62
2023/04/17 11:40:55;;;;;;;2.83;2.63;;;;;;;;;;5026012;28;57788;-61
2023/04/17 11:43:21;;;;;;;2.70;2.50;;;;;;;;;;5025660;28;57725;-64
2023/04/17 11:45:48;;;;;;;2.33;2.22;;;;;;;;;;5026767;28;58992;-60
2023/04/17 11:48:14;;;;;;;1.90;1.58;;;;;;;;;;5026263;28;58819;-61
2023/04/17 11:50:40;;;;;;;2.53;2.33;;;;;;;;;;5027242;28;59017;-61
2023/04/17 11:53:06;;;;;;;1.98;1.88;;;;;;;;;;5025601;28;61275;-61
2023/04/17 11:55:32;;;;;;;2.40;2.20;;;;;;;;;;5025713;28;58095;-60
2023/04/17 11:57:58;;;;;;;1.88;1.77;;;;;;;;;;5020243;28;59228;-61
2023/04/17 12:00:28;;;;;;;1.92;1.80;;;;;;;;;;5022456;28;58590;-63
2023/04/17 12:02:53;;;;;;;4.95;2.35;;;;;;;;;;5023514;28;58422;-62
2023/04/17 12:05:18;;;;;;;1.83;1.70;;;;;;;;;;5026623;28;58348;-63
2023/04/17 12:07:43;;;;;;;1.97;1.87;;;;;;;;;;5024685;28;58492;-60
2023/04/17 12:10:09;;;;;;;1.70;1.60;;;;;;;;;;5026501;28;58392;-60
2023/04/17 12:12:34;;;;;;;2.10;2.00;;;;;;;;;;5024400;28;58729;-58
2023/04/17 12:14:59;;;;;;;2.13;1.90;;;;;;;;;;5024081;28;58321;-62
2023/04/17 12:17:25;;;;;;;2.08;1.98;;;;;;;;;;5026415;28;58378;-63
2023/04/17 12:19:51;;;;;;;2.15;2.00;;;;;;;;;;5023754;28;58344;-61
2023/04/17 12:22:16;;;;;;;3.42;1.73;;;;;;;;;;5025729;28;58276;-61
2023/04/17 12:24:41;;;;;;;2.42;2.22;;;;;;;;;;5025895;28;58606;-59
2023/04/17 12:27:06;;;;;;;2.40;2.00;;;;;;;;;;5025039;28;58711;-62
2023/04/17 12:29:31;;;;;;;2.60;2.38;;;;;;;;;;5026074;28;58329;-62
2023/04/17 12:31:57;;;;;;;1.50;1.40;;;;;;;;;;5023262;28;58716;-62
2023/04/17 12:34:22;;;;;;;1.60;1.50;;;;;;;;;;5024407;28;58503;-61
2023/04/17 12:36:49;;;;;;;1.75;1.65;;;;;;;;;;5021080;28;58738;-60
2023/04/17 12:39:15;;;;;;;3.45;1.80;;;;;;;;;;5024510;28;58688;-63
2023/04/17 12:41:40;;;;;;;2.80;1.70;;;;;;;;;;5025557;28;58458;-63
2023/04/17 12:44:05;;;;;;;1.90;1.70;;;;;;;;;;5026054;28;58816;-59
2023/04/17 12:46:30;;;;;;;2.43;2.07;;;;;;;;;;5021123;28;58890;-57
2023/04/17 12:48:58;;;;;;;5.80;2.33;;;;;;;;;;5022789;28;58729;-57
2023/04/17 12:51:23;;;;;;;5.95;1.90;;;;;;;;;;5023887;28;58979;-58
2023/04/17 12:53:51;;;;;;;1.90;1.80;;;;;;;;;;5026156;28;58384;-61
2023/04/17 12:56:16;;;;;;;;;;;;;;;;;;5028929;28;59425;-59
2023/04/17 12:58:41;;;;;;;2.58;1.40;;;;;;;;;;5029343;28;58506;-59
2023/04/17 13:01:07;;;;;;;2.35;1.70;;;;;;;;;;5027588;28;58482;-61
2023/04/17 13:03:32;;;;;;;1.63;1.52;;;;;;;;;;5028983;28;58543;-61
2023/04/17 13:05:57;;;;;;;1.65;1.55;;;;;;;;;;5027114;28;58584;-59
2023/04/17 13:08:22;;;;;;;2.03;1.85;;;;;;;;;;5030218;28;59250;-62
2023/04/17 13:10:47;;;;;;;2.57;2.23;;;;;;;;;;5041563;28;59833;-61
2023/04/17 13:13:12;;;;;;;3.67;2.10;;;;;;;;;;5027694;27;58554;-62
2023/04/17 13:15:38;;;;;;;2.80;2.13;;;;;;;;;;5027721;28;58724;-61
2023/04/17 13:18:03;;;;;;;1.70;1.60;;;;;;;;;;5028323;28;58501;-62
2023/04/17 13:20:28;;;;;;;2.30;2.10;;;;;;;;;;5029531;28;58430;-65
2023/04/17 13:22:54;;;;;;;2.50;1.50;;;;;;;;;;5027762;28;59143;-61
2023/04/17 13:25:19;;;;;;;2.58;1.85;;;;;;;;;;5028052;28;58669;-61
2023/04/17 13:27:44;;;;;;;1.73;1.63;;;;;;;;;;5026951;28;58421;-61
2023/04/17 13:30:09;;;;;;;2.13;1.60;;;;;;;;;;5028384;28;59165;-60
2023/04/17 13:32:35;;;;;;;2.47;1.87;;;;;;;;;;5028853;28;58510;-62
2023/04/17 13:35:01;;;;;;;1.95;1.80;;;;;;;;;;5029858;28;58995;-64
2023/04/17 13:37:26;;;;;;;2.28;2.17;;;;;;;;;;5025604;28;58470;-66
2023/04/17 13:39:51;;;;;;;1.60;1.50;;;;;;;;;;5029446;28;58757;-61
2023/04/17 13:42:17;;;;;;;2.10;2.00;;;;;;;;;;5027491;28;58347;-58
2023/04/17 13:44:42;;;;;;;2.17;1.98;;;;;;;;;;5027679;28;58723;-68
2023/04/17 13:47:07;;;;;;;1.50;1.40;;;;;;;;;;5028991;28;58473;-60
2023/04/17 13:49:33;;;;;;;2.73;1.90;;;;;;;;;;5028405;28;58286;-66
2023/04/17 13:51:58;;;;;;;1.65;1.55;;;;;;;;;;5027793;28;58589;-68
2023/04/17 13:54:23;;;;;;;1.67;1.40;;;;;;;;;;5028972;28;58508;-58
2023/04/17 13:56:48;;;;;;;1.77;1.40;;;;;;;;;;5028607;28;58660;-58
2023/04/17 13:59:13;;;;;;;2.00;1.80;;;;;;;;;;5026595;28;58627;-58
2023/04/17 14:01:38;;;;;;;2.03;1.53;;;;;;;;;;5028000;28;58876;-58
2023/04/17 14:04:04;;;;;;;1.97;1.80;;;;;;;;;;5023353;28;58566;-59
2023/04/17 14:06:33;;;;;;;3.33;2.17;;;;;;;;;;5026355;28;58391;-59
2023/04/17 14:08:58;;;;;;;1.90;1.80;;;;;;;;;;5027038;28;58759;-59
2023/04/17 14:11:23;;;;;;;1.63;1.47;;;;;;;;;;5027987;28;58465;-58
2023/04/17 14:13:49;;;;;;;1.33;1.23;;;;;;;;;;5027264;28;58621;-58
2023/04/17 14:16:14;;;;;;;2.03;1.92;;;;;;;;;;5028159;28;58759;-59
2023/04/17 14:18:39;;;;;;;1.60;1.50;;;;;;;;;;5027329;28;58541;-59
2023/04/17 14:21:05;;;;;;;2.08;1.98;;;;;;;;;;5026001;28;58823;-57
2023/04/17 14:23:30;;;;;;;1.80;1.70;;;;;;;;;;5028072;28;58439;-58
2023/04/17 14:25:55;;;;;;;2.00;1.80;;;;;;;;;;5027245;28;58449;-59
2023/04/17 14:28:21;;;;;;;1.80;1.70;;;;;;;;;;5027954;28;58253;-59
2023/04/17 14:30:47;;;;;;;1.60;1.50;;;;;;;;;;5026872;28;58661;-58
2023/04/17 14:33:12;;;;;;;1.95;1.85;;;;;;;;;;5027840;28;58311;-58
2023/04/17 14:35:38;;;;;;;1.52;1.42;;;;;;;;;;5028018;28;58951;-59